sensor_id;sensor_type;location;lat;lon;timestamp;P1;durP1;ratioP1;P2;durP2;ratioP2
51883;SDS011;37915;53.254;6.598;2023-12-20T00:01:37;8.05;;;1.70;;
51883;SDS011;37915;53.254;6.598;2023-12-20T00:04:03;13.48;;;2.42;;
51883;SDS011;37915;53.254;6.598;2023-12-20T00:06:29;16.77;;;2.55;;
51883;SDS011;37915;53.254;6.598;2023-12-20T00:08:55;13.57;;;2.45;;
51883;SDS011;37915;53.254;6.598;2023-12-20T00:11:23;11.00;;;2.20;;
51883;SDS011;37915;53.254;6.598;2023-12-20T00:13:48;18.38;;;3.65;;
51883;SDS011;37915;53.254;6.598;2023-12-20T00:16:14;10.88;;;2.55;;
51883;SDS011;37915;53.254;6.598;2023-12-20T00:18:40;12.90;;;2.75;;
51883;SDS011;37915;53.254;6.598;2023-12-20T00:21:05;11.02;;;2.45;;
51883;SDS011;37915;53.254;6.598;2023-12-20T00:23:31;12.43;;;2.33;;
51883;SDS011;37915;53.254;6.598;2023-12-20T00:25:57;9.60;;;2.15;;
51883;SDS011;37915;53.254;6.598;2023-12-20T00:28:23;7.22;;;2.72;;
51883;SDS011;37915;53.254;6.598;2023-12-20T00:30:48;15.23;;;2.53;;
51883;SDS011;37915;53.254;6.598;2023-12-20T00:33:14;16.58;;;3.40;;
51883;SDS011;37915;53.254;6.598;2023-12-20T00:35:40;10.55;;;2.30;;
51883;SDS011;37915;53.254;6.598;2023-12-20T00:38:06;15.32;;;3.00;;
51883;SDS011;37915;53.254;6.598;2023-12-20T00:40:32;8.63;;;2.75;;
51883;SDS011;37915;53.254;6.598;2023-12-20T00:42:58;14.77;;;3.35;;
51883;SDS011;37915;53.254;6.598;2023-12-20T00:45:23;9.57;;;2.53;;
51883;SDS011;37915;53.254;6.598;2023-12-20T00:47:49;9.85;;;2.10;;
51883;SDS011;37915;53.254;6.598;2023-12-20T00:50:15;11.70;;;2.72;;
51883;SDS011;37915;53.254;6.598;2023-12-20T00:52:41;6.75;;;2.33;;
51883;SDS011;37915;53.254;6.598;2023-12-20T00:55:06;9.35;;;2.53;;
51883;SDS011;37915;53.254;6.598;2023-12-20T00:57:32;13.25;;;2.70;;
51883;SDS011;37915;53.254;6.598;2023-12-20T00:59:59;6.50;;;2.05;;
51883;SDS011;37915;53.254;6.598;2023-12-20T01:02:24;11.63;;;2.30;;
51883;SDS011;37915;53.254;6.598;2023-12-20T01:04:50;12.93;;;3.03;;
51883;SDS011;37915;53.254;6.598;2023-12-20T01:07:16;12.43;;;2.55;;
51883;SDS011;37915;53.254;6.598;2023-12-20T01:09:41;6.72;;;2.05;;
51883;SDS011;37915;53.254;6.598;2023-12-20T01:12:07;9.27;;;2.35;;
51883;SDS011;37915;53.254;6.598;2023-12-20T01:14:33;9.90;;;2.47;;
51883;SDS011;37915;53.254;6.598;2023-12-20T01:16:59;8.43;;;2.45;;
51883;SDS011;37915;53.254;6.598;2023-12-20T01:19:24;12.85;;;2.25;;
51883;SDS011;37915;53.254;6.598;2023-12-20T01:21:52;16.95;;;2.72;;
51883;SDS011;37915;53.254;6.598;2023-12-20T01:24:17;9.75;;;2.60;;
51883;SDS011;37915;53.254;6.598;2023-12-20T01:26:43;11.20;;;2.10;;
51883;SDS011;37915;53.254;6.598;2023-12-20T01:29:09;9.27;;;1.98;;
51883;SDS011;37915;53.254;6.598;2023-12-20T01:31:34;10.65;;;2.05;;
51883;SDS011;37915;53.254;6.598;2023-12-20T01:34:00;12.23;;;2.53;;
51883;SDS011;37915;53.254;6.598;2023-12-20T01:36:25;11.60;;;3.08;;
51883;SDS011;37915;53.254;6.598;2023-12-20T01:38:52;8.18;;;2.00;;
51883;SDS011;37915;53.254;6.598;2023-12-20T01:41:17;10.63;;;1.90;;
51883;SDS011;37915;53.254;6.598;2023-12-20T01:43:43;10.80;;;2.22;;
51883;SDS011;37915;53.254;6.598;2023-12-20T01:46:09;9.80;;;2.50;;
51883;SDS011;37915;53.254;6.598;2023-12-20T01:48:35;20.10;;;3.38;;
51883;SDS011;37915;53.254;6.598;2023-12-20T01:51:01;15.75;;;3.30;;
51883;SDS011;37915;53.254;6.598;2023-12-20T01:53:27;13.25;;;3.63;;
51883;SDS011;37915;53.254;6.598;2023-12-20T01:55:54;11.18;;;2.40;;
51883;SDS011;37915;53.254;6.598;2023-12-20T01:58:21;13.43;;;2.47;;
51883;SDS011;37915;53.254;6.598;2023-12-20T02:00:48;12.75;;;3.28;;
51883;SDS011;37915;53.254;6.598;2023-12-20T02:03:14;17.13;;;4.22;;
51883;SDS011;37915;53.254;6.598;2023-12-20T02:05:40;14.50;;;3.30;;
51883;SDS011;37915;53.254;6.598;2023-12-20T02:08:06;18.15;;;2.85;;
51883;SDS011;37915;53.254;6.598;2023-12-20T02:10:32;11.43;;;2.47;;
51883;SDS011;37915;53.254;6.598;2023-12-20T02:12:58;9.75;;;2.40;;
51883;SDS011;37915;53.254;6.598;2023-12-20T02:15:23;12.35;;;3.28;;
51883;SDS011;37915;53.254;6.598;2023-12-20T02:17:49;13.10;;;2.53;;
51883;SDS011;37915;53.254;6.598;2023-12-20T02:20:15;8.48;;;2.00;;
51883;SDS011;37915;53.254;6.598;2023-12-20T02:22:41;9.48;;;2.25;;
51883;SDS011;37915;53.254;6.598;2023-12-20T02:25:07;9.77;;;2.40;;
51883;SDS011;37915;53.254;6.598;2023-12-20T02:27:33;9.40;;;2.42;;
51883;SDS011;37915;53.254;6.598;2023-12-20T02:30:00;13.00;;;2.63;;
51883;SDS011;37915;53.254;6.598;2023-12-20T02:32:26;11.30;;;2.38;;
51883;SDS011;37915;53.254;6.598;2023-12-20T02:34:52;16.58;;;2.72;;
51883;SDS011;37915;53.254;6.598;2023-12-20T02:37:18;9.80;;;2.03;;
51883;SDS011;37915;53.254;6.598;2023-12-20T02:39:44;9.93;;;3.08;;
51883;SDS011;37915;53.254;6.598;2023-12-20T02:42:10;12.48;;;2.78;;
51883;SDS011;37915;53.254;6.598;2023-12-20T02:44:35;16.63;;;2.72;;
51883;SDS011;37915;53.254;6.598;2023-12-20T02:47:01;17.83;;;3.00;;
51883;SDS011;37915;53.254;6.598;2023-12-20T02:49:27;14.90;;;2.65;;
51883;SDS011;37915;53.254;6.598;2023-12-20T02:51:53;19.02;;;3.38;;
51883;SDS011;37915;53.254;6.598;2023-12-20T02:54:18;10.60;;;2.80;;
51883;SDS011;37915;53.254;6.598;2023-12-20T02:56:44;17.25;;;3.17;;
51883;SDS011;37915;53.254;6.598;2023-12-20T02:59:10;15.32;;;2.88;;
51883;SDS011;37915;53.254;6.598;2023-12-20T03:01:39;13.85;;;2.85;;
51883;SDS011;37915;53.254;6.598;2023-12-20T03:04:07;10.27;;;2.97;;
51883;SDS011;37915;53.254;6.598;2023-12-20T03:06:33;14.73;;;2.67;;
51883;SDS011;37915;53.254;6.598;2023-12-20T03:08:59;18.83;;;3.28;;
51883;SDS011;37915;53.254;6.598;2023-12-20T03:11:27;16.63;;;3.13;;
51883;SDS011;37915;53.254;6.598;2023-12-20T03:13:53;14.75;;;3.72;;
51883;SDS011;37915;53.254;6.598;2023-12-20T03:16:22;21.92;;;3.67;;
51883;SDS011;37915;53.254;6.598;2023-12-20T03:18:48;24.98;;;3.90;;
51883;SDS011;37915;53.254;6.598;2023-12-20T03:21:14;22.00;;;3.83;;
51883;SDS011;37915;53.254;6.598;2023-12-20T03:23:40;19.40;;;3.70;;
51883;SDS011;37915;53.254;6.598;2023-12-20T03:26:09;17.55;;;4.05;;
51883;SDS011;37915;53.254;6.598;2023-12-20T03:28:35;18.58;;;4.63;;
51883;SDS011;37915;53.254;6.598;2023-12-20T03:31:02;13.88;;;3.42;;
51883;SDS011;37915;53.254;6.598;2023-12-20T03:33:28;10.88;;;2.47;;
51883;SDS011;37915;53.254;6.598;2023-12-20T03:35:54;10.73;;;2.17;;
51883;SDS011;37915;53.254;6.598;2023-12-20T03:38:20;13.02;;;2.72;;
51883;SDS011;37915;53.254;6.598;2023-12-20T03:40:46;12.32;;;2.63;;
51883;SDS011;37915;53.254;6.598;2023-12-20T03:43:12;11.82;;;2.47;;
51883;SDS011;37915;53.254;6.598;2023-12-20T03:45:38;13.65;;;2.50;;
51883;SDS011;37915;53.254;6.598;2023-12-20T03:48:04;20.67;;;3.55;;
51883;SDS011;37915;53.254;6.598;2023-12-20T03:50:30;17.23;;;3.97;;
51883;SDS011;37915;53.254;6.598;2023-12-20T03:52:55;12.18;;;3.38;;
51883;SDS011;37915;53.254;6.598;2023-12-20T03:55:21;17.48;;;3.13;;
51883;SDS011;37915;53.254;6.598;2023-12-20T03:57:47;19.02;;;3.75;;
51883;SDS011;37915;53.254;6.598;2023-12-20T04:00:13;23.63;;;3.67;;
51883;SDS011;37915;53.254;6.598;2023-12-20T04:02:41;20.85;;;3.85;;
51883;SDS011;37915;53.254;6.598;2023-12-20T04:05:08;17.92;;;3.78;;
51883;SDS011;37915;53.254;6.598;2023-12-20T04:07:35;18.13;;;3.58;;
51883;SDS011;37915;53.254;6.598;2023-12-20T04:10:01;24.50;;;4.85;;
51883;SDS011;37915;53.254;6.598;2023-12-20T04:12:28;24.50;;;4.97;;
51883;SDS011;37915;53.254;6.598;2023-12-20T04:14:54;22.60;;;3.72;;
51883;SDS011;37915;53.254;6.598;2023-12-20T04:17:20;21.38;;;4.57;;
51883;SDS011;37915;53.254;6.598;2023-12-20T04:19:48;23.92;;;4.75;;
51883;SDS011;37915;53.254;6.598;2023-12-20T04:22:14;19.80;;;4.10;;
51883;SDS011;37915;53.254;6.598;2023-12-20T04:24:40;22.38;;;3.40;;
51883;SDS011;37915;53.254;6.598;2023-12-20T04:27:07;23.73;;;4.55;;
51883;SDS011;37915;53.254;6.598;2023-12-20T04:29:33;24.85;;;4.43;;
51883;SDS011;37915;53.254;6.598;2023-12-20T04:31:59;34.30;;;3.95;;
51883;SDS011;37915;53.254;6.598;2023-12-20T04:34:25;21.98;;;4.38;;
51883;SDS011;37915;53.254;6.598;2023-12-20T04:36:51;20.98;;;4.50;;
51883;SDS011;37915;53.254;6.598;2023-12-20T04:39:17;19.67;;;4.10;;
51883;SDS011;37915;53.254;6.598;2023-12-20T04:41:43;22.83;;;5.25;;
51883;SDS011;37915;53.254;6.598;2023-12-20T04:44:09;17.60;;;3.95;;
51883;SDS011;37915;53.254;6.598;2023-12-20T04:46:35;15.35;;;4.15;;
51883;SDS011;37915;53.254;6.598;2023-12-20T04:49:01;19.23;;;4.97;;
51883;SDS011;37915;53.254;6.598;2023-12-20T04:51:27;17.25;;;4.28;;
51883;SDS011;37915;53.254;6.598;2023-12-20T04:53:53;12.27;;;3.55;;
51883;SDS011;37915;53.254;6.598;2023-12-20T04:56:19;20.63;;;4.07;;
51883;SDS011;37915;53.254;6.598;2023-12-20T04:58:45;12.32;;;3.15;;
51883;SDS011;37915;53.254;6.598;2023-12-20T05:01:12;17.30;;;4.20;;
51883;SDS011;37915;53.254;6.598;2023-12-20T05:03:38;13.88;;;3.55;;
51883;SDS011;37915;53.254;6.598;2023-12-20T05:06:04;18.52;;;3.63;;
51883;SDS011;37915;53.254;6.598;2023-12-20T05:08:30;19.63;;;3.85;;
51883;SDS011;37915;53.254;6.598;2023-12-20T05:10:56;18.00;;;3.53;;
51883;SDS011;37915;53.254;6.598;2023-12-20T05:13:22;19.17;;;5.20;;
51883;SDS011;37915;53.254;6.598;2023-12-20T05:15:48;21.58;;;4.32;;
51883;SDS011;37915;53.254;6.598;2023-12-20T05:18:15;17.55;;;3.58;;
51883;SDS011;37915;53.254;6.598;2023-12-20T05:20:41;22.52;;;4.60;;
51883;SDS011;37915;53.254;6.598;2023-12-20T05:23:07;19.67;;;4.00;;
51883;SDS011;37915;53.254;6.598;2023-12-20T05:25:33;18.75;;;4.18;;
51883;SDS011;37915;53.254;6.598;2023-12-20T05:27:59;23.33;;;4.95;;
51883;SDS011;37915;53.254;6.598;2023-12-20T05:30:25;22.48;;;4.57;;
51883;SDS011;37915;53.254;6.598;2023-12-20T05:32:51;26.33;;;4.93;;
51883;SDS011;37915;53.254;6.598;2023-12-20T05:35:18;28.15;;;5.25;;
51883;SDS011;37915;53.254;6.598;2023-12-20T05:37:44;18.80;;;3.28;;
51883;SDS011;37915;53.254;6.598;2023-12-20T05:40:10;25.48;;;4.15;;
51883;SDS011;37915;53.254;6.598;2023-12-20T05:42:37;24.17;;;4.93;;
51883;SDS011;37915;53.254;6.598;2023-12-20T05:45:03;21.92;;;4.05;;
51883;SDS011;37915;53.254;6.598;2023-12-20T05:47:30;15.07;;;3.83;;
51883;SDS011;37915;53.254;6.598;2023-12-20T05:49:56;16.00;;;4.18;;
51883;SDS011;37915;53.254;6.598;2023-12-20T05:52:22;20.40;;;4.45;;
51883;SDS011;37915;53.254;6.598;2023-12-20T05:54:48;16.88;;;4.18;;
51883;SDS011;37915;53.254;6.598;2023-12-20T05:57:14;21.73;;;3.58;;
51883;SDS011;37915;53.254;6.598;2023-12-20T05:59:40;18.15;;;4.40;;
51883;SDS011;37915;53.254;6.598;2023-12-20T06:02:06;30.73;;;4.40;;
51883;SDS011;37915;53.254;6.598;2023-12-20T06:04:32;23.98;;;4.10;;
51883;SDS011;37915;53.254;6.598;2023-12-20T06:06:58;17.75;;;5.45;;
51883;SDS011;37915;53.254;6.598;2023-12-20T06:09:26;26.05;;;5.20;;
51883;SDS011;37915;53.254;6.598;2023-12-20T06:11:52;27.25;;;4.90;;
51883;SDS011;37915;53.254;6.598;2023-12-20T06:14:18;17.75;;;4.95;;
51883;SDS011;37915;53.254;6.598;2023-12-20T06:16:45;21.05;;;4.57;;
51883;SDS011;37915;53.254;6.598;2023-12-20T06:19:11;16.02;;;4.35;;
51883;SDS011;37915;53.254;6.598;2023-12-20T06:21:37;25.02;;;5.05;;
51883;SDS011;37915;53.254;6.598;2023-12-20T06:24:03;15.45;;;4.43;;
51883;SDS011;37915;53.254;6.598;2023-12-20T06:26:29;24.48;;;5.85;;
51883;SDS011;37915;53.254;6.598;2023-12-20T06:28:55;27.52;;;6.18;;
51883;SDS011;37915;53.254;6.598;2023-12-20T06:31:22;18.27;;;4.32;;
51883;SDS011;37915;53.254;6.598;2023-12-20T06:33:47;17.23;;;4.50;;
51883;SDS011;37915;53.254;6.598;2023-12-20T06:36:14;17.77;;;4.25;;
51883;SDS011;37915;53.254;6.598;2023-12-20T06:38:40;19.73;;;4.07;;
51883;SDS011;37915;53.254;6.598;2023-12-20T06:41:07;20.20;;;6.00;;
51883;SDS011;37915;53.254;6.598;2023-12-20T06:43:33;27.27;;;5.32;;
51883;SDS011;37915;53.254;6.598;2023-12-20T06:46:00;21.90;;;4.10;;
51883;SDS011;37915;53.254;6.598;2023-12-20T06:48:25;19.02;;;5.03;;
51883;SDS011;37915;53.254;6.598;2023-12-20T06:50:51;25.50;;;4.80;;
51883;SDS011;37915;53.254;6.598;2023-12-20T06:53:17;21.02;;;4.18;;
51883;SDS011;37915;53.254;6.598;2023-12-20T06:55:43;24.13;;;4.97;;
51883;SDS011;37915;53.254;6.598;2023-12-20T06:58:09;21.30;;;4.13;;
51883;SDS011;37915;53.254;6.598;2023-12-20T07:00:34;11.98;;;3.58;;
51883;SDS011;37915;53.254;6.598;2023-12-20T07:03:00;32.75;;;5.28;;
51883;SDS011;37915;53.254;6.598;2023-12-20T07:05:26;20.60;;;4.95;;
51883;SDS011;37915;53.254;6.598;2023-12-20T07:07:52;20.80;;;4.53;;
51883;SDS011;37915;53.254;6.598;2023-12-20T07:10:17;24.90;;;5.85;;
51883;SDS011;37915;53.254;6.598;2023-12-20T07:12:43;17.42;;;4.65;;
51883;SDS011;37915;53.254;6.598;2023-12-20T07:15:09;21.17;;;4.20;;
51883;SDS011;37915;53.254;6.598;2023-12-20T07:17:35;27.60;;;4.75;;
51883;SDS011;37915;53.254;6.598;2023-12-20T07:20:01;16.27;;;4.32;;
51883;SDS011;37915;53.254;6.598;2023-12-20T07:22:31;26.58;;;4.95;;
51883;SDS011;37915;53.254;6.598;2023-12-20T07:24:58;21.17;;;3.90;;
51883;SDS011;37915;53.254;6.598;2023-12-20T07:27:24;17.73;;;3.90;;
51883;SDS011;37915;53.254;6.598;2023-12-20T07:29:50;18.90;;;4.13;;
51883;SDS011;37915;53.254;6.598;2023-12-20T07:32:16;22.17;;;5.00;;
51883;SDS011;37915;53.254;6.598;2023-12-20T07:34:42;25.83;;;4.88;;
51883;SDS011;37915;53.254;6.598;2023-12-20T07:37:08;20.38;;;4.90;;
51883;SDS011;37915;53.254;6.598;2023-12-20T07:39:35;18.42;;;4.38;;
51883;SDS011;37915;53.254;6.598;2023-12-20T07:42:01;24.40;;;5.78;;
51883;SDS011;37915;53.254;6.598;2023-12-20T07:44:27;23.00;;;4.22;;
51883;SDS011;37915;53.254;6.598;2023-12-20T07:46:52;16.92;;;4.15;;
51883;SDS011;37915;53.254;6.598;2023-12-20T07:49:18;20.02;;;4.78;;
51883;SDS011;37915;53.254;6.598;2023-12-20T07:51:44;28.88;;;4.97;;
51883;SDS011;37915;53.254;6.598;2023-12-20T07:54:10;24.10;;;4.45;;
51883;SDS011;37915;53.254;6.598;2023-12-20T07:56:36;20.45;;;4.35;;
51883;SDS011;37915;53.254;6.598;2023-12-20T07:59:02;19.83;;;5.10;;
51883;SDS011;37915;53.254;6.598;2023-12-20T08:01:27;15.93;;;3.90;;
51883;SDS011;37915;53.254;6.598;2023-12-20T08:03:53;22.23;;;4.28;;
51883;SDS011;37915;53.254;6.598;2023-12-20T08:06:19;18.98;;;3.67;;
51883;SDS011;37915;53.254;6.598;2023-12-20T08:08:44;21.13;;;4.53;;
51883;SDS011;37915;53.254;6.598;2023-12-20T08:11:10;13.35;;;3.78;;
51883;SDS011;37915;53.254;6.598;2023-12-20T08:13:36;29.95;;;6.10;;
51883;SDS011;37915;53.254;6.598;2023-12-20T08:16:01;17.20;;;3.92;;
51883;SDS011;37915;53.254;6.598;2023-12-20T08:18:28;21.33;;;5.97;;
51883;SDS011;37915;53.254;6.598;2023-12-20T08:20:54;29.30;;;5.35;;
51883;SDS011;37915;53.254;6.598;2023-12-20T08:23:20;18.35;;;4.30;;
51883;SDS011;37915;53.254;6.598;2023-12-20T08:25:46;17.63;;;4.55;;
51883;SDS011;37915;53.254;6.598;2023-12-20T08:28:12;14.48;;;3.95;;
51883;SDS011;37915;53.254;6.598;2023-12-20T08:30:37;18.38;;;4.25;;
51883;SDS011;37915;53.254;6.598;2023-12-20T08:33:03;10.77;;;2.60;;
51883;SDS011;37915;53.254;6.598;2023-12-20T08:35:29;6.72;;;1.33;;
51883;SDS011;37915;53.254;6.598;2023-12-20T08:37:56;5.05;;;1.40;;
51883;SDS011;37915;53.254;6.598;2023-12-20T08:40:22;3.92;;;1.00;;
51883;SDS011;37915;53.254;6.598;2023-12-20T08:42:48;7.60;;;1.63;;
51883;SDS011;37915;53.254;6.598;2023-12-20T08:45:14;8.35;;;1.70;;
51883;SDS011;37915;53.254;6.598;2023-12-20T08:47:39;12.18;;;1.98;;
51883;SDS011;37915;53.254;6.598;2023-12-20T08:50:06;6.57;;;2.45;;
51883;SDS011;37915;53.254;6.598;2023-12-20T08:52:32;8.50;;;1.85;;
51883;SDS011;37915;53.254;6.598;2023-12-20T08:54:58;8.93;;;1.65;;
51883;SDS011;37915;53.254;6.598;2023-12-20T08:57:23;5.55;;;1.25;;
51883;SDS011;37915;53.254;6.598;2023-12-20T08:59:50;11.57;;;1.75;;
51883;SDS011;37915;53.254;6.598;2023-12-20T09:02:16;4.22;;;1.40;;
51883;SDS011;37915;53.254;6.598;2023-12-20T09:04:42;5.05;;;1.45;;
51883;SDS011;37915;53.254;6.598;2023-12-20T09:07:21;7.07;;;1.60;;
51883;SDS011;37915;53.254;6.598;2023-12-20T09:09:48;4.55;;;1.70;;
51883;SDS011;37915;53.254;6.598;2023-12-20T09:12:14;8.00;;;1.45;;
51883;SDS011;37915;53.254;6.598;2023-12-20T09:14:40;8.02;;;2.10;;
51883;SDS011;37915;53.254;6.598;2023-12-20T09:17:06;5.80;;;1.67;;
51883;SDS011;37915;53.254;6.598;2023-12-20T09:19:33;8.70;;;1.80;;
51883;SDS011;37915;53.254;6.598;2023-12-20T09:21:59;5.40;;;2.00;;
51883;SDS011;37915;53.254;6.598;2023-12-20T09:24:25;8.82;;;1.70;;
51883;SDS011;37915;53.254;6.598;2023-12-20T09:26:52;9.82;;;2.35;;
51883;SDS011;37915;53.254;6.598;2023-12-20T09:29:17;6.72;;;1.50;;
51883;SDS011;37915;53.254;6.598;2023-12-20T09:31:44;13.50;;;2.28;;
51883;SDS011;37915;53.254;6.598;2023-12-20T09:34:11;7.13;;;2.88;;
51883;SDS011;37915;53.254;6.598;2023-12-20T09:36:37;9.23;;;2.08;;
51883;SDS011;37915;53.254;6.598;2023-12-20T09:39:05;12.38;;;2.50;;
51883;SDS011;37915;53.254;6.598;2023-12-20T09:41:31;8.38;;;1.55;;
51883;SDS011;37915;53.254;6.598;2023-12-20T09:44:02;7.40;;;1.90;;
51883;SDS011;37915;53.254;6.598;2023-12-20T09:46:28;10.38;;;2.40;;
51883;SDS011;37915;53.254;6.598;2023-12-20T09:48:58;7.05;;;1.48;;
51883;SDS011;37915;53.254;6.598;2023-12-20T09:51:26;8.02;;;1.73;;
51883;SDS011;37915;53.254;6.598;2023-12-20T09:53:54;5.75;;;1.83;;
51883;SDS011;37915;53.254;6.598;2023-12-20T09:56:21;6.70;;;1.50;;
51883;SDS011;37915;53.254;6.598;2023-12-20T09:58:47;6.18;;;1.25;;
51883;SDS011;37915;53.254;6.598;2023-12-20T10:01:13;10.65;;;1.70;;
51883;SDS011;37915;53.254;6.598;2023-12-20T10:03:41;7.88;;;1.42;;
51883;SDS011;37915;53.254;6.598;2023-12-20T10:06:07;9.38;;;1.50;;
51883;SDS011;37915;53.254;6.598;2023-12-20T10:08:33;5.95;;;1.52;;
51883;SDS011;37915;53.254;6.598;2023-12-20T10:10:59;5.07;;;1.25;;
51883;SDS011;37915;53.254;6.598;2023-12-20T10:13:28;9.50;;;1.75;;
51883;SDS011;37915;53.254;6.598;2023-12-20T10:15:54;8.93;;;1.70;;
51883;SDS011;37915;53.254;6.598;2023-12-20T10:18:21;9.25;;;1.48;;
51883;SDS011;37915;53.254;6.598;2023-12-20T10:20:47;11.60;;;2.42;;
51883;SDS011;37915;53.254;6.598;2023-12-20T10:23:13;10.98;;;2.10;;
51883;SDS011;37915;53.254;6.598;2023-12-20T10:25:40;12.48;;;2.05;;
51883;SDS011;37915;53.254;6.598;2023-12-20T10:28:10;12.60;;;2.10;;
51883;SDS011;37915;53.254;6.598;2023-12-20T10:30:36;10.50;;;2.08;;
51883;SDS011;37915;53.254;6.598;2023-12-20T10:33:03;10.00;;;1.95;;
51883;SDS011;37915;53.254;6.598;2023-12-20T10:35:30;11.15;;;2.65;;
51883;SDS011;37915;53.254;6.598;2023-12-20T10:37:56;10.68;;;2.55;;
51883;SDS011;37915;53.254;6.598;2023-12-20T10:40:23;10.93;;;2.30;;
51883;SDS011;37915;53.254;6.598;2023-12-20T10:42:51;10.88;;;2.30;;
51883;SDS011;37915;53.254;6.598;2023-12-20T10:45:17;7.85;;;2.85;;
51883;SDS011;37915;53.254;6.598;2023-12-20T10:47:45;11.35;;;2.28;;
51883;SDS011;37915;53.254;6.598;2023-12-20T10:50:11;6.43;;;1.95;;
51883;SDS011;37915;53.254;6.598;2023-12-20T10:52:37;15.45;;;2.85;;
51883;SDS011;37915;53.254;6.598;2023-12-20T10:55:05;14.45;;;2.88;;
51883;SDS011;37915;53.254;6.598;2023-12-20T10:57:31;14.95;;;3.13;;
51883;SDS011;37915;53.254;6.598;2023-12-20T11:00:00;9.68;;;2.88;;
51883;SDS011;37915;53.254;6.598;2023-12-20T11:02:32;17.98;;;3.00;;
51883;SDS011;37915;53.254;6.598;2023-12-20T11:05:11;11.25;;;4.07;;
51883;SDS011;37915;53.254;6.598;2023-12-20T11:08:00;19.98;;;4.43;;
51883;SDS011;37915;53.254;6.598;2023-12-20T11:10:36;13.50;;;3.00;;
51883;SDS011;37915;53.254;6.598;2023-12-20T11:13:22;9.75;;;2.97;;
51883;SDS011;37915;53.254;6.598;2023-12-20T11:15:54;13.93;;;2.92;;
51883;SDS011;37915;53.254;6.598;2023-12-20T11:18:19;15.50;;;3.17;;
51883;SDS011;37915;53.254;6.598;2023-12-20T11:20:45;14.23;;;2.80;;
51883;SDS011;37915;53.254;6.598;2023-12-20T11:23:11;11.90;;;3.60;;
51883;SDS011;37915;53.254;6.598;2023-12-20T11:25:49;13.18;;;3.53;;
51883;SDS011;37915;53.254;6.598;2023-12-20T11:28:20;18.15;;;3.80;;
51883;SDS011;37915;53.254;6.598;2023-12-20T11:30:48;14.13;;;3.08;;
51883;SDS011;37915;53.254;6.598;2023-12-20T11:33:21;17.73;;;3.45;;
51883;SDS011;37915;53.254;6.598;2023-12-20T11:35:48;10.30;;;2.75;;
51883;SDS011;37915;53.254;6.598;2023-12-20T11:38:14;21.75;;;3.97;;
51883;SDS011;37915;53.254;6.598;2023-12-20T11:40:41;14.27;;;2.78;;
51883;SDS011;37915;53.254;6.598;2023-12-20T11:43:08;12.75;;;3.20;;
51883;SDS011;37915;53.254;6.598;2023-12-20T11:45:33;11.93;;;3.13;;
51883;SDS011;37915;53.254;6.598;2023-12-20T11:48:00;12.35;;;2.90;;
51883;SDS011;37915;53.254;6.598;2023-12-20T11:50:29;15.90;;;2.72;;
51883;SDS011;37915;53.254;6.598;2023-12-20T11:52:55;14.23;;;2.85;;
51883;SDS011;37915;53.254;6.598;2023-12-20T11:55:22;24.35;;;3.40;;
51883;SDS011;37915;53.254;6.598;2023-12-20T11:57:49;11.30;;;3.33;;
51883;SDS011;37915;53.254;6.598;2023-12-20T12:00:16;13.73;;;3.40;;
51883;SDS011;37915;53.254;6.598;2023-12-20T12:02:42;12.55;;;3.28;;
51883;SDS011;37915;53.254;6.598;2023-12-20T12:05:08;15.27;;;4.10;;
51883;SDS011;37915;53.254;6.598;2023-12-20T12:07:34;11.25;;;3.25;;
51883;SDS011;37915;53.254;6.598;2023-12-20T12:10:00;13.50;;;2.90;;
51883;SDS011;37915;53.254;6.598;2023-12-20T12:12:26;11.88;;;3.08;;
51883;SDS011;37915;53.254;6.598;2023-12-20T12:14:52;17.25;;;3.25;;
51883;SDS011;37915;53.254;6.598;2023-12-20T12:17:19;18.02;;;3.05;;
51883;SDS011;37915;53.254;6.598;2023-12-20T12:19:45;14.82;;;3.75;;
51883;SDS011;37915;53.254;6.598;2023-12-20T12:22:12;19.63;;;3.30;;
51883;SDS011;37915;53.254;6.598;2023-12-20T12:24:45;14.43;;;3.22;;
51883;SDS011;37915;53.254;6.598;2023-12-20T12:27:15;14.85;;;3.85;;
51883;SDS011;37915;53.254;6.598;2023-12-20T12:29:41;13.48;;;2.75;;
51883;SDS011;37915;53.254;6.598;2023-12-20T12:32:25;13.50;;;2.72;;
51883;SDS011;37915;53.254;6.598;2023-12-20T12:34:51;13.85;;;3.13;;
51883;SDS011;37915;53.254;6.598;2023-12-20T12:37:16;17.67;;;3.15;;
51883;SDS011;37915;53.254;6.598;2023-12-20T12:39:42;11.43;;;2.78;;
51883;SDS011;37915;53.254;6.598;2023-12-20T12:42:08;14.88;;;2.92;;
51883;SDS011;37915;53.254;6.598;2023-12-20T12:44:33;17.83;;;2.63;;
51883;SDS011;37915;53.254;6.598;2023-12-20T12:46:59;10.40;;;2.58;;
51883;SDS011;37915;53.254;6.598;2023-12-20T12:49:25;14.30;;;3.28;;
51883;SDS011;37915;53.254;6.598;2023-12-20T12:51:54;10.20;;;2.58;;
51883;SDS011;37915;53.254;6.598;2023-12-20T12:54:23;9.73;;;2.67;;
51883;SDS011;37915;53.254;6.598;2023-12-20T12:56:49;14.00;;;2.75;;
51883;SDS011;37915;53.254;6.598;2023-12-20T12:59:17;12.35;;;2.60;;
51883;SDS011;37915;53.254;6.598;2023-12-20T13:01:44;9.15;;;2.60;;
51883;SDS011;37915;53.254;6.598;2023-12-20T13:04:10;11.02;;;2.75;;
51883;SDS011;37915;53.254;6.598;2023-12-20T13:06:36;12.38;;;2.75;;
51883;SDS011;37915;53.254;6.598;2023-12-20T13:09:03;10.48;;;2.47;;
51883;SDS011;37915;53.254;6.598;2023-12-20T13:11:30;12.65;;;2.78;;
51883;SDS011;37915;53.254;6.598;2023-12-20T13:13:56;11.88;;;2.67;;
51883;SDS011;37915;53.254;6.598;2023-12-20T13:16:23;11.88;;;2.50;;
51883;SDS011;37915;53.254;6.598;2023-12-20T13:18:49;11.13;;;3.00;;
51883;SDS011;37915;53.254;6.598;2023-12-20T13:21:15;11.00;;;2.50;;
51883;SDS011;37915;53.254;6.598;2023-12-20T13:23:42;11.20;;;2.47;;
51883;SDS011;37915;53.254;6.598;2023-12-20T13:26:08;7.85;;;2.17;;
51883;SDS011;37915;53.254;6.598;2023-12-20T13:28:34;12.32;;;2.85;;
51883;SDS011;37915;53.254;6.598;2023-12-20T13:31:00;9.73;;;2.22;;
51883;SDS011;37915;53.254;6.598;2023-12-20T13:33:26;13.32;;;3.38;;
51883;SDS011;37915;53.254;6.598;2023-12-20T13:35:52;10.52;;;3.47;;
51883;SDS011;37915;53.254;6.598;2023-12-20T13:38:18;12.50;;;3.33;;
51883;SDS011;37915;53.254;6.598;2023-12-20T13:40:44;7.65;;;2.00;;
51883;SDS011;37915;53.254;6.598;2023-12-20T13:43:10;13.65;;;2.28;;
51883;SDS011;37915;53.254;6.598;2023-12-20T13:45:37;14.65;;;2.65;;
51883;SDS011;37915;53.254;6.598;2023-12-20T13:48:04;7.60;;;2.00;;
51883;SDS011;37915;53.254;6.598;2023-12-20T13:50:30;14.82;;;2.67;;
51883;SDS011;37915;53.254;6.598;2023-12-20T13:52:56;8.82;;;2.22;;
51883;SDS011;37915;53.254;6.598;2023-12-20T13:55:22;9.68;;;2.38;;
51883;SDS011;37915;53.254;6.598;2023-12-20T13:57:50;10.35;;;2.33;;
51883;SDS011;37915;53.254;6.598;2023-12-20T14:00:16;7.25;;;2.60;;
51883;SDS011;37915;53.254;6.598;2023-12-20T14:02:42;12.50;;;2.58;;
51883;SDS011;37915;53.254;6.598;2023-12-20T14:05:08;7.97;;;1.83;;
51883;SDS011;37915;53.254;6.598;2023-12-20T14:07:35;8.82;;;2.95;;
51883;SDS011;37915;53.254;6.598;2023-12-20T14:10:01;7.38;;;2.42;;
51883;SDS011;37915;53.254;6.598;2023-12-20T14:12:26;8.70;;;1.95;;
51883;SDS011;37915;53.254;6.598;2023-12-20T14:14:52;7.28;;;2.13;;
51883;SDS011;37915;53.254;6.598;2023-12-20T14:17:20;9.60;;;1.80;;
51883;SDS011;37915;53.254;6.598;2023-12-20T14:19:46;4.38;;;1.73;;
51883;SDS011;37915;53.254;6.598;2023-12-20T14:22:12;7.57;;;2.03;;
51883;SDS011;37915;53.254;6.598;2023-12-20T14:24:41;6.10;;;1.55;;
51883;SDS011;37915;53.254;6.598;2023-12-20T14:27:07;7.50;;;1.85;;
51883;SDS011;37915;53.254;6.598;2023-12-20T14:29:34;10.98;;;2.28;;
51883;SDS011;37915;53.254;6.598;2023-12-20T14:32:00;5.28;;;1.70;;
51883;SDS011;37915;53.254;6.598;2023-12-20T14:34:28;8.77;;;2.22;;